Airfield :
LOGIN :

Register | Disclaimer

   EN    FR    IT 

 










Legend :    VFR   Marginal VFR   IFR   Intensive IFR   Very Intensive IFR
Visi :
Ceiling :
>= 8 km
>= 3000ft
5 to 8 km
1000 to 3000 ft
1500m to 5 km
500 to 1000 ft
800 to 1500m
200 to 500 ft
< 800m
< 200 ft
Symbols :   Thunderstorms  Fog  Heavy snow  Heavy precipitations  Wind > 20 kt
SIGMETs :     Misc.  Thunderstorms  Icing  Turbulence  Mountain Waves  Volcanic Ashes







- Airport Elevation : 59 ft
- IATA code : TSF


LIPH - Treviso

CURRENT METAR :
  • 222020Z 08004KT CAVOK 26/22 Q1014

EXPIRED METARs :
  • 221950Z 11004KT CAVOK 27/23 Q1013
  • 221920Z 10005KT CAVOK 27/22 Q1013
  • 221850Z 10006KT CAVOK 28/22 Q1013
  • 221820Z 11006KT CAVOK 28/23 Q1012
  • 221750Z 12007KT CAVOK 29/23 Q1012

TAF TAF LIPH
Valid from the 22 at 18:00 until the 23 at 18:00 UTC


221700Z 2218/2318 VRB05KT 9999 SCT040
No reported NOTAMs for that airfield.
1 SIGMET reported for the Milano FIR (LIMM) :
 
Embedded thunderstorms
LIMM SIGMET 2 VALID 221855/222055 LIMM- LIMM MILANO FIR EMBD TS OBS N OF LINE N4509 E00639 - N4608 E00853 TOP FL380 MOV ENE INTSF=



MET'MAP, your aeronautical weather chart ! - Copyright ORBIFLY December 2007 - Disclaimer

ORBIFLY MET'MAP TEAM :

Programming & Development : Alexandra Zaïnal
Concept & Development : Baudouin d'Aumeries
Co-Development & Prog : Marc-Olivier Méhu
Technical & hardware support : Manuel Goepfert

Contact : metmap@orbifly.com




SOURCES & CREDITS :

   NOAA